createdAt,value
2022-10-07T00:00:44.095Z,62.79
2022-10-07T00:03:11.091Z,62.92
2022-10-07T00:05:38.063Z,62.86
2022-10-07T00:08:05.155Z,63.16
2022-10-07T00:10:32.295Z,62.94
2022-10-07T00:13:01.456Z,62.65
2022-10-07T00:15:28.555Z,62.98
2022-10-07T00:17:55.536Z,63.38
2022-10-07T00:20:22.555Z,62.58
2022-10-07T00:22:49.652Z,63.23
2022-10-07T00:25:16.695Z,63.51
2022-10-07T00:27:43.845Z,63.90
2022-10-07T00:30:11.655Z,63.68
2022-10-07T00:32:38.654Z,63.32
2022-10-07T00:35:06.154Z,65.09
2022-10-07T00:37:33.257Z,64.45
2022-10-07T00:40:00.241Z,64.57
2022-10-07T00:42:27.517Z,64.63
2022-10-07T00:44:54.537Z,64.25
2022-10-07T00:47:51.876Z,64.09
2022-10-07T00:50:28.076Z,64.34
2022-10-07T00:52:59.218Z,64.16
2022-10-07T00:55:29.396Z,63.92
2022-10-07T00:58:01.816Z,63.69
2022-10-07T01:00:29.036Z,64.19
2022-10-07T01:02:56.113Z,64.15
2022-10-07T01:05:24.944Z,63.66
2022-10-07T01:07:54.062Z,63.82
2022-10-07T01:10:27.616Z,64.15
2022-10-07T01:13:05.396Z,63.89
2022-10-07T01:15:41.976Z,64.63
2022-10-07T01:18:21.257Z,64.34
2022-10-07T01:21:07.118Z,65.11
2022-10-07T01:23:37.133Z,64.59
2022-10-07T01:26:08.898Z,64.69
2022-10-07T01:28:54.624Z,64.66
2022-10-07T01:31:25.236Z,64.73
2022-10-07T01:33:54.436Z,64.98
2022-10-07T01:36:25.600Z,65.01
2022-10-07T01:38:57.219Z,65.48
2022-10-07T01:41:25.437Z,64.51
2022-10-07T01:43:55.179Z,65.08
2022-10-07T01:46:25.088Z,65.24
2022-10-07T01:48:53.797Z,65.66
2022-10-07T01:51:28.938Z,66.35
2022-10-07T01:54:05.901Z,65.31
2022-10-07T01:57:02.217Z,65.62
2022-10-07T01:59:53.297Z,65.76
2022-10-07T02:02:20.359Z,65.75
2022-10-07T02:05:24.714Z,66.05
2022-10-07T02:08:13.025Z,66.62
2022-10-07T02:10:44.099Z,65.75
2022-10-07T02:13:24.280Z,66.13
2022-10-07T02:16:17.031Z,66.44
2022-10-07T02:18:48.998Z,66.03
2022-10-07T02:21:18.658Z,65.79
2022-10-07T02:23:47.197Z,66.17
2022-10-07T02:26:19.697Z,65.68
2022-10-07T02:28:51.379Z,65.92
2022-10-07T02:31:24.265Z,66.71
2022-10-07T02:33:54.300Z,66.92
2022-10-07T02:36:29.198Z,66.36
2022-10-07T02:38:57.759Z,66.77
2022-10-07T02:41:52.207Z,66.38
2022-10-07T02:44:43.137Z,66.66
2022-10-07T02:47:34.758Z,66.62
2022-10-07T02:50:07.558Z,66.27
2022-10-07T02:52:35.657Z,66.39
2022-10-07T02:55:18.237Z,66.03
2022-10-07T02:57:49.779Z,66.35
2022-10-07T03:00:17.979Z,66.20
2022-10-07T03:02:56.599Z,66.09
2022-10-07T03:05:29.978Z,67.20
2022-10-07T03:08:07.940Z,67.46
2022-10-07T03:10:35.910Z,67.23
2022-10-07T03:13:06.339Z,67.41
2022-10-07T03:15:42.115Z,67.10
2022-10-07T03:18:26.874Z,67.23
2022-10-07T03:21:02.239Z,66.46
2022-10-07T03:23:29.819Z,66.59
2022-10-07T03:25:58.778Z,66.17
2022-10-07T03:28:27.773Z,66.23
2022-10-07T03:31:07.899Z,66.12
2022-10-07T03:33:37.580Z,66.12
2022-10-07T03:36:08.448Z,66.19
2022-10-07T03:38:37.100Z,66.16
2022-10-07T03:41:05.147Z,66.74
2022-10-07T03:43:33.820Z,66.80
2022-10-07T03:46:03.535Z,66.98
2022-10-07T03:48:32.819Z,66.62
2022-10-07T03:51:01.258Z,66.92
2022-10-07T03:53:30.958Z,66.99
2022-10-07T03:56:00.378Z,67.08
2022-10-07T03:58:29.641Z,67.00
2022-10-07T04:01:08.059Z,67.19
2022-10-07T04:03:37.146Z,67.38
2022-10-07T04:06:04.558Z,67.07
2022-10-07T04:08:34.521Z,67.40
2022-10-07T04:11:04.226Z,68.06
2022-10-07T04:13:32.718Z,67.58
2022-10-07T04:16:08.934Z,66.88
2022-10-07T04:18:37.015Z,66.74
2022-10-07T04:21:04.354Z,66.81
2022-10-07T04:23:33.503Z,66.59
2022-10-07T04:26:01.498Z,66.43
2022-10-07T04:28:30.760Z,65.96
2022-10-07T04:31:06.470Z,66.35
2022-10-07T04:33:41.604Z,66.55
2022-10-07T04:36:11.673Z,66.59
2022-10-07T04:38:58.988Z,66.75
2022-10-07T04:41:31.055Z,67.15
2022-10-07T04:43:58.239Z,66.43
2022-10-07T04:46:29.297Z,66.74
2022-10-07T04:49:01.719Z,67.75
2022-10-07T04:51:31.399Z,67.19
2022-10-07T04:54:00.520Z,67.10
2022-10-07T04:56:42.939Z,67.81
2022-10-07T04:59:12.808Z,67.28
2022-10-07T05:01:41.141Z,67.29
2022-10-07T05:04:11.923Z,67.09
2022-10-07T05:06:39.519Z,66.69
2022-10-07T05:09:07.414Z,66.56
2022-10-07T05:11:39.448Z,66.86
2022-10-07T05:14:11.928Z,67.11
2022-10-07T05:16:40.097Z,67.21
2022-10-07T05:19:09.488Z,67.49
2022-10-07T05:21:36.956Z,67.21
2022-10-07T05:24:05.167Z,67.59
2022-10-07T05:26:35.888Z,67.32
2022-10-07T05:29:04.741Z,67.62
2022-10-07T05:31:38.046Z,67.54
2022-10-07T05:34:06.367Z,67.24
2022-10-07T05:36:33.628Z,67.17
2022-10-07T05:39:02.317Z,67.09
2022-10-07T05:41:45.735Z,66.99
2022-10-07T05:44:16.286Z,66.73
2022-10-07T05:46:43.467Z,67.14
2022-10-07T05:49:12.429Z,66.39
2022-10-07T05:51:40.368Z,65.94
2022-10-07T05:54:08.640Z,65.53
2022-10-07T05:56:40.008Z,65.06
2022-10-07T05:59:07.908Z,64.72
2022-10-07T06:01:36.260Z,64.61
2022-10-07T06:04:09.157Z,65.05
2022-10-07T06:06:39.596Z,64.66
2022-10-07T06:09:29.952Z,64.61
2022-10-07T06:12:17.508Z,64.11
2022-10-07T06:14:45.919Z,64.19
2022-10-07T06:17:13.088Z,64.73
2022-10-07T06:19:41.817Z,64.73
2022-10-07T06:22:09.508Z,64.74
2022-10-07T06:24:38.157Z,64.74
2022-10-07T06:27:12.107Z,64.94
2022-10-07T06:29:40.196Z,64.96
2022-10-07T06:32:07.308Z,65.09
2022-10-07T06:34:35.437Z,64.94
2022-10-07T06:37:02.397Z,65.39
2022-10-07T06:39:30.157Z,65.10
2022-10-07T06:41:57.467Z,65.60
2022-10-07T06:44:39.646Z,64.61
2022-10-07T06:47:11.819Z,64.22
2022-10-07T06:49:41.597Z,64.54
2022-10-07T06:52:08.507Z,64.76
2022-10-07T06:54:36.548Z,64.63
2022-10-07T06:57:20.489Z,64.70
2022-10-07T06:59:51.248Z,64.37
2022-10-07T07:02:18.326Z,64.14
2022-10-07T07:04:46.057Z,64.16
2022-10-07T07:07:13.168Z,64.10
2022-10-07T07:09:40.058Z,63.50
2022-10-07T07:12:09.717Z,63.58
2022-10-07T07:14:40.397Z,63.95
2022-10-07T07:17:12.645Z,63.82
2022-10-07T07:19:39.625Z,63.21
2022-10-07T07:22:08.438Z,63.57
2022-10-07T07:24:35.798Z,63.20
2022-10-07T07:27:03.837Z,63.01
2022-10-07T07:29:31.337Z,63.08
2022-10-07T07:32:00.348Z,62.86
2022-10-07T07:34:30.467Z,62.88
2022-10-07T07:36:57.837Z,62.38
2022-10-07T07:39:30.167Z,62.01
2022-10-07T07:42:04.348Z,61.92
2022-10-07T07:44:34.776Z,62.12
2022-10-07T07:47:04.099Z,61.83
2022-10-07T07:49:32.498Z,61.10
2022-10-07T07:52:00.598Z,60.71
2022-10-07T07:54:31.658Z,60.49
2022-10-07T07:56:58.639Z,60.41
2022-10-07T07:59:38.486Z,60.67
2022-10-07T08:02:08.157Z,60.29
2022-10-07T08:04:38.259Z,60.54
2022-10-07T08:07:05.961Z,60.52
2022-10-07T08:09:33.460Z,60.83
2022-10-07T08:12:00.766Z,60.17
2022-10-07T08:14:27.898Z,59.80
2022-10-07T08:16:57.681Z,59.16
2022-10-07T08:19:29.260Z,59.25
2022-10-07T08:21:58.319Z,59.37
2022-10-07T08:24:28.086Z,59.48
2022-10-07T08:26:55.262Z,59.15
2022-10-07T08:29:23.027Z,58.54
2022-10-07T08:31:50.089Z,58.90
2022-10-07T08:34:17.049Z,58.42
2022-10-07T08:36:47.499Z,58.28
2022-10-07T08:39:15.362Z,57.57
2022-10-07T08:42:00.865Z,57.78
2022-10-07T08:44:36.177Z,57.41
2022-10-07T08:47:18.237Z,57.51
2022-10-07T08:49:54.657Z,57.59
2022-10-07T08:52:39.891Z,57.23
2022-10-07T08:55:15.472Z,56.33
2022-10-07T08:58:06.528Z,55.78
2022-10-07T09:01:07.645Z,55.48
2022-10-07T09:03:57.767Z,54.78
2022-10-07T09:06:34.800Z,54.83
2022-10-07T09:09:12.977Z,54.14
2022-10-07T09:11:43.761Z,53.80
2022-10-07T09:14:35.405Z,53.60
2022-10-07T09:17:10.956Z,53.06
2022-10-07T09:19:48.555Z,51.82
2022-10-07T09:22:31.508Z,51.69
2022-10-07T09:25:11.742Z,49.36
2022-10-07T09:27:38.827Z,50.28
2022-10-07T09:30:06.878Z,50.29
2022-10-07T09:32:40.307Z,50.20
2022-10-07T09:35:11.999Z,49.99
2022-10-07T09:37:55.307Z,49.50
2022-10-07T09:40:28.278Z,48.72
2022-10-07T09:42:55.657Z,48.07
2022-10-07T09:45:26.969Z,47.30
2022-10-07T09:47:57.056Z,47.64
2022-10-07T09:50:32.737Z,46.59
2022-10-07T09:53:01.599Z,45.78
2022-10-07T09:55:37.682Z,45.63
2022-10-07T09:58:32.599Z,45.57
2022-10-07T10:01:02.282Z,45.97
2022-10-07T10:03:35.012Z,44.68
2022-10-07T10:06:08.931Z,45.54
2022-10-07T10:08:42.760Z,45.69
2022-10-07T10:11:19.527Z,44.52
2022-10-07T10:13:51.447Z,44.71
2022-10-07T10:16:40.657Z,44.40
2022-10-07T10:19:27.887Z,43.38
2022-10-07T10:21:56.924Z,43.88
2022-10-07T10:24:44.267Z,43.36
2022-10-07T10:27:26.377Z,43.40
2022-10-07T10:29:56.062Z,42.79
2022-10-07T10:32:51.648Z,41.54
2022-10-07T10:35:50.737Z,41.91
2022-10-07T10:38:40.337Z,41.44
2022-10-07T10:41:16.387Z,41.59
2022-10-07T10:44:01.108Z,40.17
2022-10-07T10:46:34.113Z,40.39
2022-10-07T10:49:19.819Z,41.03
2022-10-07T10:52:08.695Z,40.43
2022-10-07T10:54:58.128Z,40.68
2022-10-07T10:57:43.179Z,40.05
2022-10-07T11:00:20.614Z,40.05
2022-10-07T11:13:29.699Z,42.14
2022-10-07T11:16:08.509Z,42.41
2022-10-07T11:18:42.287Z,42.06
2022-10-07T11:21:15.431Z,42.70
2022-10-07T11:24:02.390Z,41.93
2022-10-07T11:26:58.208Z,41.74
2022-10-07T11:29:40.998Z,41.20
2022-10-07T11:32:18.208Z,39.69
2022-10-07T11:34:56.312Z,38.83
2022-10-07T11:37:41.178Z,38.05
2022-10-07T11:40:08.908Z,38.26
2022-10-07T11:42:48.016Z,38.62
2022-10-07T11:45:26.927Z,38.81
2022-10-07T11:48:01.128Z,38.83
2022-10-07T11:50:56.127Z,38.86
2022-10-07T11:53:27.049Z,38.78
2022-10-07T11:56:04.887Z,39.43
2022-10-07T11:58:39.168Z,39.78
2022-10-07T12:01:31.128Z,40.57
2022-10-07T12:04:35.423Z,39.88
2022-10-07T12:07:40.009Z,39.92
2022-10-07T12:10:07.576Z,40.27
2022-10-07T12:12:43.006Z,39.20
2022-10-07T12:15:34.148Z,39.22
2022-10-07T12:18:06.477Z,39.73
2022-10-07T12:20:51.467Z,39.14
2022-10-07T12:23:22.556Z,38.17
2022-10-07T12:26:30.371Z,38.25
2022-10-07T12:28:57.749Z,38.15
2022-10-07T12:31:24.633Z,38.47
2022-10-07T12:33:57.898Z,38.85
2022-10-07T12:36:29.509Z,37.77
2022-10-07T12:38:59.582Z,37.70
2022-10-07T12:41:26.508Z,38.45
2022-10-07T12:44:14.170Z,37.96
2022-10-07T12:46:40.937Z,38.48
2022-10-07T12:49:28.358Z,38.38
2022-10-07T12:51:59.029Z,39.65
2022-10-07T12:54:59.951Z,38.79
2022-10-07T12:57:34.369Z,38.43
2022-10-07T13:00:30.009Z,37.69
2022-10-07T13:02:57.318Z,37.89
2022-10-07T13:06:08.250Z,37.78
2022-10-07T13:09:13.937Z,37.57
2022-10-07T13:12:06.988Z,37.48
2022-10-07T13:15:01.799Z,37.95
2022-10-07T13:17:31.408Z,37.87
2022-10-07T13:20:33.079Z,36.96
2022-10-07T13:23:07.116Z,36.72
2022-10-07T13:25:34.132Z,36.15
2022-10-07T13:28:01.269Z,34.94
2022-10-07T13:30:42.227Z,34.66
2022-10-07T13:33:25.368Z,33.38
2022-10-07T13:36:05.518Z,31.81
2022-10-07T13:38:32.787Z,30.65
2022-10-07T13:41:03.786Z,28.31
2022-10-07T13:43:33.529Z,27.04
2022-10-07T13:46:02.011Z,26.69
2022-10-07T13:48:35.456Z,26.51
2022-10-07T13:51:03.190Z,27.26
2022-10-07T13:53:31.148Z,28.01
2022-10-07T13:56:08.917Z,28.64
2022-10-07T14:08:18.407Z,29.86
2022-10-07T14:11:13.877Z,29.03
2022-10-07T14:13:43.488Z,29.24
2022-10-07T14:16:18.966Z,29.19
2022-10-07T14:18:47.477Z,30.62
2022-10-07T14:21:17.341Z,30.40
2022-10-07T14:23:47.098Z,32.01
2022-10-07T14:26:18.268Z,33.65
2022-10-07T14:28:45.711Z,34.80
2022-10-07T14:31:34.128Z,35.27
2022-10-07T14:34:36.311Z,37.27
2022-10-07T14:37:29.595Z,37.91
2022-10-07T14:39:58.799Z,38.83
2022-10-07T14:42:29.448Z,38.82
2022-10-07T14:44:57.935Z,40.06
2022-10-07T14:47:28.417Z,39.50
2022-10-07T14:49:57.120Z,40.46
2022-10-07T14:52:29.150Z,41.62
2022-10-07T14:54:58.007Z,41.43
2022-10-07T14:57:27.694Z,41.64
2022-10-07T14:59:55.248Z,42.09
2022-10-07T15:02:22.527Z,42.98
2022-10-07T15:04:49.678Z,43.06
2022-10-07T15:07:19.068Z,43.83
2022-10-07T15:09:46.456Z,43.84
2022-10-07T15:12:16.148Z,43.91
2022-10-07T15:14:43.227Z,44.37
2022-10-07T15:17:14.574Z,44.89
2022-10-07T15:19:41.750Z,45.20
2022-10-07T15:22:08.878Z,45.38
2022-10-07T15:24:36.189Z,46.03
2022-10-07T15:27:03.280Z,46.12
2022-10-07T15:29:30.310Z,47.43
2022-10-07T15:31:57.468Z,47.01
2022-10-07T15:34:26.088Z,46.87
2022-10-07T15:36:53.078Z,46.98
2022-10-07T15:39:20.090Z,47.69
2022-10-07T15:41:47.008Z,48.42
2022-10-07T15:44:19.270Z,47.81
2022-10-07T15:46:48.190Z,48.98
2022-10-07T15:49:18.941Z,49.84
2022-10-07T15:51:46.954Z,48.78
2022-10-07T15:54:14.278Z,49.38
2022-10-07T15:56:42.780Z,50.22
2022-10-07T15:59:10.587Z,50.40
2022-10-07T16:01:37.995Z,50.82
2022-10-07T16:04:06.141Z,51.80
2022-10-07T16:06:34.923Z,51.81
2022-10-07T16:09:02.591Z,52.29
2022-10-07T16:11:33.315Z,52.33
2022-10-07T16:14:02.245Z,52.64
2022-10-07T16:16:32.624Z,53.31
2022-10-07T16:19:00.848Z,53.34
2022-10-07T16:21:31.748Z,52.99
2022-10-07T16:24:07.067Z,53.28
2022-10-07T16:26:36.087Z,53.84
2022-10-07T16:29:24.788Z,54.29
2022-10-07T16:31:57.975Z,54.11
2022-10-07T16:34:27.667Z,54.58
2022-10-07T16:36:58.331Z,54.58
2022-10-07T16:39:25.910Z,54.82
2022-10-07T16:41:53.437Z,54.72
2022-10-07T16:44:21.410Z,54.88
2022-10-07T16:46:49.068Z,55.27
2022-10-07T16:49:18.449Z,55.49
2022-10-07T16:51:46.137Z,55.52
2022-10-07T16:54:16.597Z,55.71
2022-10-07T16:56:49.309Z,56.32
2022-10-07T16:59:23.655Z,56.59
2022-10-07T17:01:53.619Z,56.38
2022-10-07T17:04:20.983Z,56.18
2022-10-07T17:06:48.797Z,56.52
2022-10-07T17:09:17.586Z,56.35
2022-10-07T17:11:45.208Z,57.01
2022-10-07T17:14:20.750Z,57.34
2022-10-07T17:16:50.244Z,56.88
2022-10-07T17:19:19.931Z,57.45
2022-10-07T17:21:48.135Z,57.57
2022-10-07T17:24:15.853Z,57.84
2022-10-07T17:26:43.861Z,57.75
2022-10-07T17:29:12.691Z,57.92
2022-10-07T17:31:43.561Z,57.65
2022-10-07T17:34:11.973Z,57.76
2022-10-07T17:36:40.110Z,57.72
2022-10-07T17:39:08.155Z,57.71
2022-10-07T17:41:37.848Z,57.75
2022-10-07T17:44:10.096Z,58.09
2022-10-07T17:46:39.534Z,58.03
2022-10-07T17:49:08.439Z,58.32
2022-10-07T17:51:37.550Z,58.20
2022-10-07T17:54:06.253Z,58.43
2022-10-07T17:56:34.945Z,58.52
2022-10-07T17:59:03.241Z,58.43
2022-10-07T18:01:34.146Z,59.06
2022-10-07T18:04:02.438Z,59.02
2022-10-07T18:06:30.560Z,58.95
2022-10-07T18:09:03.118Z,58.93
2022-10-07T18:11:49.270Z,58.76
2022-10-07T18:14:34.780Z,59.20
2022-10-07T18:17:02.057Z,59.39
2022-10-07T18:19:29.820Z,59.16
2022-10-07T18:21:56.973Z,58.98
2022-10-07T18:24:27.518Z,59.25
2022-10-07T18:26:59.494Z,59.33
2022-10-07T18:29:32.752Z,59.17
2022-10-07T18:32:00.584Z,59.14
2022-10-07T18:34:28.207Z,59.12
2022-10-07T18:36:56.943Z,59.17
2022-10-07T18:39:28.347Z,59.28
2022-10-07T18:41:56.075Z,59.36
2022-10-07T18:44:23.328Z,59.65
2022-10-07T18:46:50.690Z,59.77
2022-10-07T18:49:17.837Z,59.62
2022-10-07T18:51:47.143Z,59.80
2022-10-07T18:54:14.168Z,60.09
2022-10-07T18:56:41.754Z,59.75
2022-10-07T18:59:10.238Z,60.09
2022-10-07T19:01:38.109Z,59.85
2022-10-07T19:04:06.327Z,60.02
2022-10-07T19:06:36.623Z,59.94
2022-10-07T19:09:10.871Z,59.97
2022-10-07T19:11:37.909Z,60.04
2022-10-07T19:14:04.868Z,60.33
2022-10-07T19:16:38.154Z,60.41
2022-10-07T19:19:19.868Z,60.43
2022-10-07T19:21:49.039Z,60.38
2022-10-07T19:24:16.449Z,60.83
2022-10-07T19:26:46.059Z,60.76
2022-10-07T19:29:13.716Z,60.34
2022-10-07T19:31:50.875Z,60.64
2022-10-07T19:34:20.434Z,60.58
2022-10-07T19:36:48.567Z,60.54
2022-10-07T19:39:16.768Z,60.34
2022-10-07T19:41:44.285Z,60.16
2022-10-07T19:44:12.815Z,60.68
2022-10-07T19:46:39.988Z,60.36
2022-10-07T19:49:09.313Z,60.57
2022-10-07T19:51:37.417Z,60.59
2022-10-07T19:54:07.950Z,60.69
2022-10-07T19:56:38.071Z,60.67
2022-10-07T19:59:07.826Z,61.09
2022-10-07T20:01:37.724Z,61.25
2022-10-07T20:04:07.807Z,61.34
2022-10-07T20:06:38.987Z,61.21
2022-10-07T20:09:07.695Z,61.58
2022-10-07T20:11:34.978Z,61.12
2022-10-07T20:14:04.937Z,61.55
2022-10-07T20:16:32.605Z,61.89
2022-10-07T20:19:06.584Z,61.58
2022-10-07T20:21:36.014Z,61.72
2022-10-07T20:24:03.384Z,62.11
2022-10-07T20:26:33.007Z,61.95
2022-10-07T20:29:02.007Z,61.91
2022-10-07T20:31:31.845Z,62.53
2022-10-07T20:34:00.345Z,62.26
2022-10-07T20:36:30.618Z,62.27
2022-10-07T20:39:18.212Z,62.46
2022-10-07T20:42:08.049Z,62.51
2022-10-07T20:44:36.900Z,62.67
2022-10-07T20:47:06.479Z,62.33
2022-10-07T20:49:35.415Z,62.65
2022-10-07T20:52:05.077Z,62.84
2022-10-07T20:54:33.334Z,62.36
2022-10-07T20:57:00.459Z,62.67
2022-10-07T20:59:29.427Z,62.65
2022-10-07T21:01:57.156Z,62.86
2022-10-07T21:04:28.857Z,62.91
2022-10-07T21:06:57.339Z,62.59
2022-10-07T21:09:25.339Z,62.51
2022-10-07T21:11:53.127Z,62.83
2022-10-07T21:14:20.328Z,62.39
2022-10-07T21:16:48.482Z,62.79
2022-10-07T21:19:15.858Z,63.00
2022-10-07T21:21:43.209Z,63.01
2022-10-07T21:24:10.579Z,63.04
2022-10-07T21:26:37.881Z,62.82
2022-10-07T21:29:07.198Z,62.85
2022-10-07T21:31:35.917Z,62.96
2022-10-07T21:34:10.721Z,62.66
2022-10-07T21:36:41.197Z,62.90
2022-10-07T21:39:08.507Z,62.78
2022-10-07T21:41:37.679Z,63.20
2022-10-07T21:44:08.099Z,62.96
2022-10-07T21:46:36.906Z,62.90
2022-10-07T21:49:06.294Z,63.20
2022-10-07T21:51:34.528Z,63.38
2022-10-07T21:54:02.161Z,63.30
2022-10-07T21:56:30.779Z,63.13
2022-10-07T21:59:00.848Z,63.19
2022-10-07T22:01:28.649Z,63.13
2022-10-07T22:04:01.198Z,63.12
2022-10-07T22:06:48.987Z,63.28
2022-10-07T22:09:18.613Z,63.52
2022-10-07T22:11:45.498Z,63.26
2022-10-07T22:14:13.217Z,63.71
2022-10-07T22:16:40.757Z,63.98
2022-10-07T22:19:08.278Z,63.64
2022-10-07T22:21:39.387Z,63.75
2022-10-07T22:24:07.749Z,64.18
2022-10-07T22:26:44.470Z,64.22
2022-10-07T22:29:12.877Z,64.49
2022-10-07T22:31:39.804Z,64.54
2022-10-07T22:34:07.499Z,64.38
2022-10-07T22:36:35.518Z,64.07
2022-10-07T22:39:02.643Z,64.25
2022-10-07T22:41:29.688Z,64.41
2022-10-07T22:43:56.728Z,64.42
2022-10-07T22:46:27.105Z,64.74
2022-10-07T22:48:58.484Z,64.72
2022-10-07T22:51:29.558Z,64.40
2022-10-07T22:53:57.570Z,64.00
2022-10-07T22:56:28.068Z,63.86
2022-10-07T22:59:00.821Z,64.04
2022-10-07T23:01:29.644Z,64.03
2022-10-07T23:03:57.791Z,63.77
2022-10-07T23:06:24.661Z,63.78
2022-10-07T23:08:51.508Z,63.81
2022-10-07T23:11:22.489Z,63.58
2022-10-07T23:13:51.455Z,63.24
2022-10-07T23:16:21.189Z,63.28
2022-10-07T23:18:49.718Z,63.29
2022-10-07T23:21:25.108Z,63.10
2022-10-07T23:23:55.138Z,63.04
2022-10-07T23:26:24.437Z,63.20
2022-10-07T23:28:52.448Z,63.31
2022-10-07T23:31:23.267Z,63.37
2022-10-07T23:33:52.114Z,63.30
2022-10-07T23:36:20.678Z,63.45
2022-10-07T23:38:49.288Z,63.41
2022-10-07T23:41:27.438Z,63.53
2022-10-07T23:43:59.590Z,63.37
2022-10-07T23:46:27.630Z,63.53
2022-10-07T23:48:56.273Z,63.62
2022-10-07T23:51:28.008Z,63.58
2022-10-07T23:54:02.219Z,63.46
2022-10-07T23:56:29.838Z,63.75
2022-10-07T23:58:57.169Z,63.48
